Apiliotis — SYVY — position and weather

sailwx.info

Track history (hours):
 
Tides and Currents Weather Stations Pressure Air Temp Water Temp Dewpoint Dewpoint Depression Visibility Wind Speed Wind Dir Waves Ship Positions

Apiliotis

Last reported at 2017-Jan-17 13:24 UTC. Time now 2017-Jan-17 23:33 UTC.
Position N 37°45' E 024°29'.

Length 79 m; draft 4 m.

Type: Ship. MMSI: 240438000.

Date/timePositionNaut miles runAvg speedWind from/ knotsBaromVisibWave heightAir tempDewpointWater temp
2017-Jan-17 13:24N 37°45' E 024°29'2211.2
2017-Jan-17 11:25N 37°36' E 024°03'8 9.2
2017-Jan-17 10:33N 37°35' E 023°53'1010.2
2017-Jan-17 09:33N 37°40' E 023°42'1010.4
2017-Jan-17 08:34N 37°50' E 023°37'9 9.5
2017-Jan-17 07:33N 37°59' E 023°33'3 3.1
2017-Jan-17 06:33N 38°02' E 023°32'0 0.0
2017-Jan-17 05:33N 38°02' E 023°32'0 0.0
2017-Jan-17 04:33N 38°02' E 023°32'0 0.0
2017-Jan-17 03:33N 38°02' E 023°32'0 0.0
2017-Jan-17 02:33N 38°02' E 023°32'0 0.0
2017-Jan-17 01:34N 38°02' E 023°32'0 0.0
2017-Jan-17 00:33N 38°02' E 023°32'0 0.0
2017-Jan-16 23:33N 38°02' E 023°32'0 0.0
2017-Jan-16 22:33N 38°02' E 023°32'0 0.0
2017-Jan-16 21:33N 38°02' E 023°32'0 0.0
2017-Jan-16 20:33N 38°02' E 023°32'0 0.1
2017-Jan-16 19:34N 38°02' E 023°32'3 2.9
2017-Jan-16 18:33N 38°02' E 023°36'0 0.0
2017-Jan-16 17:33N 38°02' E 023°36'0 0.0
2017-Jan-16 16:34N 38°02' E 023°36'0 0.0
2017-Jan-16 15:33N 38°02' E 023°36'0 0.0
2017-Jan-16 14:33N 38°02' E 023°36'0 0.0
2017-Jan-16 13:34N 38°02' E 023°36'0 0.5
2017-Jan-16 12:33N 38°02' E 023°35'2 2.0
2017-Jan-16 11:33N 38°02' E 023°33'0 0.0
2017-Jan-16 10:33N 38°02' E 023°33'0 0.0
2017-Jan-16 09:33N 38°02' E 023°33'0 0.0
2017-Jan-16 08:33N 38°02' E 023°33'0 0.0
2017-Jan-16 07:33N 38°02' E 023°33'0 0.0
2017-Jan-16 06:34N 38°02' E 023°33'0 0.4
2017-Jan-16 05:33N 38°02' E 023°32'0 0.0
2017-Jan-16 04:33N 38°02' E 023°32'0 0.0
2017-Jan-16 03:34N 38°02' E 023°32'0 0.0
2017-Jan-16 02:33N 38°02' E 023°32'0 0.0
2017-Jan-16 01:33N 38°02' E 023°32'0 0.0
2017-Jan-16 00:34N 38°02' E 023°32'0 0.0
2017-Jan-15 23:33N 38°02' E 023°32'0 0.0
2017-Jan-15 22:33N 38°02' E 023°32'0 0.0
2017-Jan-15 21:34N 38°02' E 023°32'0 0.0
2017-Jan-15 20:34N 38°02' E 023°32'0 0.0
2017-Jan-15 19:34N 38°02' E 023°32'0 0.0
2017-Jan-15 18:33N 38°02' E 023°32'0 0.0
2017-Jan-15 17:33N 38°02' E 023°32'0 0.0
2017-Jan-15 16:33N 38°02' E 023°32'0 0.0
2017-Jan-15 15:33N 38°02' E 023°32'0 0.1
2017-Jan-15 14:34N 38°02' E 023°32'0 0.0
2017-Jan-15 13:33N 38°02' E 023°32'0 0.0
2017-Jan-15 12:33N 38°02' E 023°32'0 0.0
2017-Jan-15 11:33N 38°02' E 023°32'0 0.0
2017-Jan-15 10:34N 38°02' E 023°32'0 0.1
2017-Jan-15 09:33N 38°02' E 023°32'0 0.0
2017-Jan-15 08:33N 38°02' E 023°32'0 0.1
2017-Jan-15 07:33N 38°02' E 023°32'0 0.0
2017-Jan-15 06:33N 38°02' E 023°32'0 0.0
2017-Jan-15 05:33N 38°02' E 023°32'0 0.0
2017-Jan-15 04:33N 38°02' E 023°32'0 0.0
2017-Jan-15 03:33N 38°02' E 023°32'0 0.0
2017-Jan-15 02:33N 38°02' E 023°32'0 0.0
2017-Jan-15 01:34N 38°02' E 023°32'0 0.0
2017-Jan-15 00:33N 38°02' E 023°32'0 0.0
2017-Jan-14 23:33N 38°02' E 023°32'0 0.0
2017-Jan-14 22:33N 38°02' E 023°32'0 0.0
2017-Jan-14 21:33N 38°02' E 023°32'0 0.0
2017-Jan-14 20:33N 38°02' E 023°32'0 0.0
2017-Jan-14 19:33N 38°02' E 023°32'0 0.1
2017-Jan-14 18:33N 38°02' E 023°32'0 0.0
2017-Jan-14 17:33N 38°02' E 023°32'0 0.0
2017-Jan-14 16:33N 38°02' E 023°32'0 0.1
2017-Jan-14 15:33N 38°02' E 023°32'0 0.1
2017-Jan-14 14:34N 38°02' E 023°32'0 0.0
2017-Jan-14 13:33N 38°02' E 023°32'0 0.0
2017-Jan-14 12:33N 38°02' E 023°32'0 0.0
2017-Jan-14 11:34N 38°02' E 023°32'0 0.0
2017-Jan-14 10:33N 38°02' E 023°32'5 5.1
2017-Jan-14 09:33N 37°57' E 023°34'1211.6
2017-Jan-14 08:33N 37°47' E 023°42'1111.2
2017-Jan-14 07:33N 37°38' E 023°50'1210.2
2017-Jan-14 06:24N 37°37' E 024°05'910.8
2017-Jan-14 05:33N 37°43' E 024°14'1111.1
2017-Jan-14 04:33N 37°50' E 024°25'1211.6
2017-Jan-14 03:33N 37°58' E 024°35'97 3.6
2017-Jan-13 00:24N 39°33' E 024°08'3512.1
2017-Jan-12 21:28N 39°48' E 024°50'84 5.6
2017-Jan-12 06:33N 39°16' E 026°31'1110.6
2017-Jan-12 05:33N 39°06' E 026°34'1 0.6
2017-Jan-12 04:33N 39°06' E 026°33'0 0.0
2017-Jan-12 03:24N 39°06' E 026°33'0 0.0
2017-Jan-12 02:33N 39°06' E 026°33'0 0.0
2017-Jan-12 01:33N 39°06' E 026°33'0 0.0
2017-Jan-12 00:33N 39°06' E 026°33'0 0.0
2017-Jan-11 23:33N 39°06' E 026°33'0 0.0
2017-Jan-11 21:32N 39°06' E 026°33'0 0.0
2017-Jan-11 15:31N 39°06' E 026°33'0 0.0
2017-Jan-11 14:33N 39°06' E 026°33'0 0.0
2017-Jan-11 13:33N 39°06' E 026°33'0 0.0
2017-Jan-11 12:33N 39°06' E 026°33'0 0.0
2017-Jan-11 11:32N 39°06' E 026°33'0 0.0
2017-Jan-11 10:33N 39°06' E 026°33'0 0.0
2017-Jan-11 09:30N 39°06' E 026°33'0 0.0
2017-Jan-11 08:33N 39°06' E 026°33'0 0.0
2017-Jan-11 07:33N 39°06' E 026°33'0 0.0
2017-Jan-11 06:32N 39°06' E 026°33'0 0.0
2017-Jan-11 05:30N 39°06' E 026°33'0 0.0
2017-Jan-10 18:30N 39°06' E 026°33'0 0.0
2017-Jan-10 15:33N 39°06' E 026°33'0 0.0
2017-Jan-10 14:29N 39°06' E 026°33'0 0.0
2017-Jan-10 13:33N 39°06' E 026°33'0 0.0
2017-Jan-10 12:33N 39°06' E 026°33'0 0.0
2017-Jan-10 11:33N 39°06' E 026°33'0 0.0
2017-Jan-10 10:33N 39°06' E 026°33'0 0.0
2017-Jan-10 09:33N 39°06' E 026°33'0 0.0
2017-Jan-10 08:33N 39°06' E 026°33'0 0.0
2017-Jan-10 07:33N 39°06' E 026°33'0 0.0
2017-Jan-10 06:33N 39°06' E 026°33'0 0.0
2017-Jan-10 05:33N 39°06' E 026°33'0 0.0
2017-Jan-10 04:33N 39°06' E 026°33'0 0.0
2017-Jan-10 03:29N 39°06' E 026°33'0 0.0
2017-Jan-10 02:32N 39°06' E 026°33'0 0.0
2017-Jan-10 01:33N 39°06' E 026°33'0 0.0
2017-Jan-10 00:33N 39°06' E 026°33'0 0.0
2017-Jan-09 23:33N 39°06' E 026°33'0 0.0
2017-Jan-09 21:11N 39°06' E 026°33'0 0.0
2017-Jan-09 20:30N 39°06' E 026°33'0 0.0
2017-Jan-09 19:18N 39°06' E 026°33'0 0.2
2017-Jan-09 18:18N 39°06' E 026°34'7 8.8
2017-Jan-09 17:34N 39°01' E 026°40'1010.0
2017-Jan-09 16:33N 38°55' E 026°29'10 9.7
2017-Jan-09 15:34N 38°51' E 026°18'78 5.2
2017-Jan-09 00:31N 37°45' E 025°25'9 9.1
2017-Jan-08 23:32N 37°37' E 025°20'9 9.6
2017-Jan-08 22:33N 37°30' E 025°12'3 0.1
2017-Jan-07 17:33N 37°32' E 025°09'1 0.6
2017-Jan-07 16:24N 37°32' E 025°09'0 0.0
2017-Jan-07 15:33N 37°32' E 025°09'  
Track history (hours):
 
Tides and Currents Weather Stations Pressure Air Temp Water Temp Dewpoint Dewpoint Depression Visibility Wind Speed Wind Dir Waves Ship Positions

Apiliotis

Last reported at 2017-Jan-17 13:24 UTC. Time now 2017-Jan-17 23:33 UTC.
Position N 37°45' E 024°29'.

Length 79 m; draft 4 m.

Type: Ship. MMSI: 240438000.

Date/timePositionNaut miles runAvg speedWind from/ knotsBaromVisibWave heightAir tempDewpointWater temp
2017-Jan-17 13:24N 37°45' E 024°29'2211.2
2017-Jan-17 11:25N 37°36' E 024°03'8 9.2
2017-Jan-17 10:33N 37°35' E 023°53'1010.2
2017-Jan-17 09:33N 37°40' E 023°42'1010.4
2017-Jan-17 08:34N 37°50' E 023°37'9 9.5
2017-Jan-17 07:33N 37°59' E 023°33'3 3.1
2017-Jan-17 06:33N 38°02' E 023°32'0 0.0
2017-Jan-17 05:33N 38°02' E 023°32'0 0.0
2017-Jan-17 04:33N 38°02' E 023°32'0 0.0
2017-Jan-17 03:33N 38°02' E 023°32'0 0.0
2017-Jan-17 02:33N 38°02' E 023°32'0 0.0
2017-Jan-17 01:34N 38°02' E 023°32'0 0.0
2017-Jan-17 00:33N 38°02' E 023°32'0 0.0
2017-Jan-16 23:33N 38°02' E 023°32'0 0.0
2017-Jan-16 22:33N 38°02' E 023°32'0 0.0
2017-Jan-16 21:33N 38°02' E 023°32'0 0.0
2017-Jan-16 20:33N 38°02' E 023°32'0 0.1
2017-Jan-16 19:34N 38°02' E 023°32'3 2.9
2017-Jan-16 18:33N 38°02' E 023°36'0 0.0
2017-Jan-16 17:33N 38°02' E 023°36'0 0.0
2017-Jan-16 16:34N 38°02' E 023°36'0 0.0
2017-Jan-16 15:33N 38°02' E 023°36'0 0.0
2017-Jan-16 14:33N 38°02' E 023°36'0 0.0
2017-Jan-16 13:34N 38°02' E 023°36'0 0.5
2017-Jan-16 12:33N 38°02' E 023°35'2 2.0
2017-Jan-16 11:33N 38°02' E 023°33'0 0.0
2017-Jan-16 10:33N 38°02' E 023°33'0 0.0
2017-Jan-16 09:33N 38°02' E 023°33'0 0.0
2017-Jan-16 08:33N 38°02' E 023°33'0 0.0
2017-Jan-16 07:33N 38°02' E 023°33'0 0.0
2017-Jan-16 06:34N 38°02' E 023°33'0 0.4
2017-Jan-16 05:33N 38°02' E 023°32'0 0.0
2017-Jan-16 04:33N 38°02' E 023°32'0 0.0
2017-Jan-16 03:34N 38°02' E 023°32'0 0.0
2017-Jan-16 02:33N 38°02' E 023°32'0 0.0
2017-Jan-16 01:33N 38°02' E 023°32'0 0.0
2017-Jan-16 00:34N 38°02' E 023°32'0 0.0
2017-Jan-15 23:33N 38°02' E 023°32'0 0.0
2017-Jan-15 22:33N 38°02' E 023°32'0 0.0
2017-Jan-15 21:34N 38°02' E 023°32'0 0.0
2017-Jan-15 20:34N 38°02' E 023°32'0 0.0
2017-Jan-15 19:34N 38°02' E 023°32'0 0.0
2017-Jan-15 18:33N 38°02' E 023°32'0 0.0
2017-Jan-15 17:33N 38°02' E 023°32'0 0.0
2017-Jan-15 16:33N 38°02' E 023°32'0 0.0
2017-Jan-15 15:33N 38°02' E 023°32'0 0.1
2017-Jan-15 14:34N 38°02' E 023°32'0 0.0
2017-Jan-15 13:33N 38°02' E 023°32'0 0.0
2017-Jan-15 12:33N 38°02' E 023°32'0 0.0
2017-Jan-15 11:33N 38°02' E 023°32'0 0.0
2017-Jan-15 10:34N 38°02' E 023°32'0 0.1
2017-Jan-15 09:33N 38°02' E 023°32'0 0.0
2017-Jan-15 08:33N 38°02' E 023°32'0 0.1
2017-Jan-15 07:33N 38°02' E 023°32'0 0.0
2017-Jan-15 06:33N 38°02' E 023°32'0 0.0
2017-Jan-15 05:33N 38°02' E 023°32'0 0.0
2017-Jan-15 04:33N 38°02' E 023°32'0 0.0
2017-Jan-15 03:33N 38°02' E 023°32'0 0.0
2017-Jan-15 02:33N 38°02' E 023°32'0 0.0
2017-Jan-15 01:34N 38°02' E 023°32'0 0.0
2017-Jan-15 00:33N 38°02' E 023°32'0 0.0
2017-Jan-14 23:33N 38°02' E 023°32'0 0.0
2017-Jan-14 22:33N 38°02' E 023°32'0 0.0
2017-Jan-14 21:33N 38°02' E 023°32'0 0.0
2017-Jan-14 20:33N 38°02' E 023°32'0 0.0
2017-Jan-14 19:33N 38°02' E 023°32'0 0.1
2017-Jan-14 18:33N 38°02' E 023°32'0 0.0
2017-Jan-14 17:33N 38°02' E 023°32'0 0.0
2017-Jan-14 16:33N 38°02' E 023°32'0 0.1
2017-Jan-14 15:33N 38°02' E 023°32'0 0.1
2017-Jan-14 14:34N 38°02' E 023°32'0 0.0
2017-Jan-14 13:33N 38°02' E 023°32'0 0.0
2017-Jan-14 12:33N 38°02' E 023°32'0 0.0
2017-Jan-14 11:34N 38°02' E 023°32'0 0.0
2017-Jan-14 10:33N 38°02' E 023°32'5 5.1
2017-Jan-14 09:33N 37°57' E 023°34'1211.6
2017-Jan-14 08:33N 37°47' E 023°42'1111.2
2017-Jan-14 07:33N 37°38' E 023°50'1210.2
2017-Jan-14 06:24N 37°37' E 024°05'910.8
2017-Jan-14 05:33N 37°43' E 024°14'1111.1
2017-Jan-14 04:33N 37°50' E 024°25'1211.6
2017-Jan-14 03:33N 37°58' E 024°35'97 3.6
2017-Jan-13 00:24N 39°33' E 024°08'3512.1
2017-Jan-12 21:28N 39°48' E 024°50'84 5.6
2017-Jan-12 06:33N 39°16' E 026°31'1110.6
2017-Jan-12 05:33N 39°06' E 026°34'1 0.6
2017-Jan-12 04:33N 39°06' E 026°33'0 0.0
2017-Jan-12 03:24N 39°06' E 026°33'0 0.0
2017-Jan-12 02:33N 39°06' E 026°33'0 0.0
2017-Jan-12 01:33N 39°06' E 026°33'0 0.0
2017-Jan-12 00:33N 39°06' E 026°33'0 0.0
2017-Jan-11 23:33N 39°06' E 026°33'0 0.0
2017-Jan-11 21:32N 39°06' E 026°33'0 0.0
2017-Jan-11 15:31N 39°06' E 026°33'0 0.0
2017-Jan-11 14:33N 39°06' E 026°33'0 0.0
2017-Jan-11 13:33N 39°06' E 026°33'0 0.0
2017-Jan-11 12:33N 39°06' E 026°33'0 0.0
2017-Jan-11 11:32N 39°06' E 026°33'0 0.0
2017-Jan-11 10:33N 39°06' E 026°33'0 0.0
2017-Jan-11 09:30N 39°06' E 026°33'0 0.0
2017-Jan-11 08:33N 39°06' E 026°33'0 0.0
2017-Jan-11 07:33N 39°06' E 026°33'0 0.0
2017-Jan-11 06:32N 39°06' E 026°33'0 0.0
2017-Jan-11 05:30N 39°06' E 026°33'0 0.0
2017-Jan-10 18:30N 39°06' E 026°33'0 0.0
2017-Jan-10 15:33N 39°06' E 026°33'0 0.0
2017-Jan-10 14:29N 39°06' E 026°33'0 0.0
2017-Jan-10 13:33N 39°06' E 026°33'0 0.0
2017-Jan-10 12:33N 39°06' E 026°33'0 0.0
2017-Jan-10 11:33N 39°06' E 026°33'0 0.0
2017-Jan-10 10:33N 39°06' E 026°33'0 0.0
2017-Jan-10 09:33N 39°06' E 026°33'0 0.0
2017-Jan-10 08:33N 39°06' E 026°33'0 0.0
2017-Jan-10 07:33N 39°06' E 026°33'0 0.0
2017-Jan-10 06:33N 39°06' E 026°33'0 0.0
2017-Jan-10 05:33N 39°06' E 026°33'0 0.0
2017-Jan-10 04:33N 39°06' E 026°33'0 0.0
2017-Jan-10 03:29N 39°06' E 026°33'0 0.0
2017-Jan-10 02:32N 39°06' E 026°33'0 0.0
2017-Jan-10 01:33N 39°06' E 026°33'0 0.0
2017-Jan-10 00:33N 39°06' E 026°33'0 0.0
2017-Jan-09 23:33N 39°06' E 026°33'0 0.0
2017-Jan-09 21:11N 39°06' E 026°33'0 0.0
2017-Jan-09 20:30N 39°06' E 026°33'0 0.0
2017-Jan-09 19:18N 39°06' E 026°33'0 0.2
2017-Jan-09 18:18N 39°06' E 026°34'7 8.8
2017-Jan-09 17:34N 39°01' E 026°40'1010.0
2017-Jan-09 16:33N 38°55' E 026°29'10 9.7
2017-Jan-09 15:34N 38°51' E 026°18'78 5.2
2017-Jan-09 00:31N 37°45' E 025°25'9 9.1
2017-Jan-08 23:32N 37°37' E 025°20'9 9.6
2017-Jan-08 22:33N 37°30' E 025°12'3 0.1
2017-Jan-07 17:33N 37°32' E 025°09'1 0.6
2017-Jan-07 16:24N 37°32' E 025°09'0 0.0
2017-Jan-07 15:33N 37°32' E 025°09'  

Dump ship's entire track history